AUA1109 LOWW-LIRF
Flight info
| Callsign | AUA1109 |
|---|---|
| Flight time | N/A |
| Altitude | 38000 |
| Route | RUPET2D RUPET DCT GRZ DCT GIRDA DCT BAXON/N0440F390 DCT UNUMU DCT ETPOK DCT RITEB RITEB4A |
| Aircraft | A320/M-V/N |
Departure
| Time | 2026-05-01 07:44 |
|---|---|
| Airport | Vienna International Airport (LOWW) |
Arrival
| Time | N/A |
|---|---|
| Airport | Rome–Fiumicino Leonardo da Vinci International Airport (LIRF) |
| Time | Latitude | Longitude | Altitude | Speed | Heading |
|---|---|---|---|---|---|
| 2026-05-01 07:23 | 48.11808 | 16.57041 | 610 ft | 0 kts | 205° |
| 2026-05-01 07:36 | 48.11811 | 16.57043 | 610 ft | 3 kts | 205° |
| 2026-05-01 07:36 | 48.11835 | 16.57062 | 621 ft | 4 kts | 208° |
| 2026-05-01 07:36 | 48.11859 | 16.57079 | 620 ft | 4 kts | 192° |
| 2026-05-01 07:37 | 48.11876 | 16.57077 | 618 ft | 0 kts | 116° |
| 2026-05-01 07:39 | 48.11871 | 16.57092 | 615 ft | 2 kts | 116° |
| 2026-05-01 07:40 | 48.11855 | 16.57141 | 618 ft | 0 kts | 115° |
| 2026-05-01 07:40 | 48.11856 | 16.57141 | 618 ft | 0 kts | 113° |
| 2026-05-01 07:41 | 48.11856 | 16.57168 | 613 ft | 10 kts | 86° |
| 2026-05-01 07:41 | 48.11837 | 16.57281 | 614 ft | 12 kts | 115° |
| 2026-05-01 07:41 | 48.11666 | 16.57409 | 618 ft | 24 kts | 165° |
| 2026-05-01 07:42 | 48.11496 | 16.57458 | 610 ft | 26 kts | 192° |
| 2026-05-01 07:42 | 48.11324 | 16.57342 | 619 ft | 26 kts | 206° |
| 2026-05-01 07:42 | 48.11194 | 16.57245 | 610 ft | 10 kts | 205° |
| 2026-05-01 07:42 | 48.11119 | 16.57194 | 624 ft | 16 kts | 205° |
| 2026-05-01 07:43 | 48.11063 | 16.57075 | 613 ft | 15 kts | 286° |
| 2026-05-01 07:43 | 48.11077 | 16.57031 | 620 ft | 0 kts | 296° |
| 2026-05-01 07:43 | 48.11302 | 16.56347 | 617 ft | 117 kts | 295° |
| 2026-05-01 07:44 | 48.12169 | 16.53434 | 1957 ft | 170 kts | 283° |
| 2026-05-01 07:44 | 48.10803 | 16.50105 | 3285 ft | 223 kts | 217° |
| 2026-05-01 07:45 | 48.09506 | 16.48750 | 4120 ft | 231 kts | 213° |
| 2026-05-01 07:45 | 48.08167 | 16.47400 | 5084 ft | 233 kts | 213° |
| 2026-05-01 07:45 | 48.06824 | 16.45991 | 5944 ft | 244 kts | 214° |
| 2026-05-01 07:45 | 48.05412 | 16.44359 | 6692 ft | 269 kts | 218° |
| 2026-05-01 07:46 | 48.03921 | 16.42463 | 7524 ft | 293 kts | 221° |
| 2026-05-01 07:46 | 48.02372 | 16.40416 | 8628 ft | 302 kts | 221° |
| 2026-05-01 07:46 | 47.99154 | 16.36084 | 10763 ft | 329 kts | 221° |
| 2026-05-01 07:47 | 47.97607 | 16.34038 | 11466 ft | 343 kts | 221° |
| 2026-05-01 07:47 | 47.97324 | 16.33665 | 11620 ft | 345 kts | 221° |
| 2026-05-01 07:47 | 47.97308 | 16.33644 | 11625 ft | 345 kts | 221° |
| 2026-05-01 07:48 | 47.93549 | 16.28872 | 13657 ft | 364 kts | 218° |
| 2026-05-01 07:48 | 47.91554 | 16.26495 | 14634 ft | 372 kts | 217° |
| 2026-05-01 07:48 | 47.89505 | 16.24088 | 15569 ft | 378 kts | 217° |
| 2026-05-01 07:49 | 47.87507 | 16.21743 | 16354 ft | 333 kts | 216° |